Time;durP1;ratioP1;P1;durP2;ratioP2;P2;SDS_P1;SDS_P2;PMS_P1;PMS_P2;Temp;Humidity;BMP_temperature;BMP_pressure;BME280_temperature;BME280_humidity;BME280_pressure;Samples;Min_cycle;Max_cycle;Signal;HPM_P1;HPM_P2
2021/05/02 00:02:12;;;;;;;20.00;17.53;;;10.90;99.90;;;;;;5071207;28;20701;-78
2021/05/02 00:04:39;;;;;;;19.03;16.97;;;10.90;99.90;;;;;;5070943;28;20231;-79
2021/05/02 00:07:05;;;;;;;21.97;17.27;;;11.00;99.90;;;;;;5069785;28;20210;-80
2021/05/02 00:09:31;;;;;;;18.73;16.80;;;10.90;99.90;;;;;;5071184;28;20215;-79
2021/05/02 00:11:58;;;;;;;21.60;17.17;;;10.90;99.90;;;;;;5071037;28;20273;-77
2021/05/02 00:14:25;;;;;;;21.00;18.07;;;10.90;99.90;;;;;;5070964;28;20203;-78
2021/05/02 00:16:52;;;;;;;21.93;18.47;;;11.00;99.90;;;;;;5070567;28;20203;-78
2021/05/02 00:19:19;;;;;;;19.10;17.00;;;11.00;99.90;;;;;;5070924;28;20560;-78
2021/05/02 00:21:47;;;;;;;20.73;18.17;;;10.90;99.90;;;;;;5070664;28;20811;-78
2021/05/02 00:24:14;;;;;;;21.13;18.07;;;10.90;99.90;;;;;;5070244;28;20776;-77
2021/05/02 00:26:40;;;;;;;19.50;17.47;;;10.80;99.90;;;;;;5070991;28;20207;-79
2021/05/02 00:29:10;;;;;;;20.53;17.93;;;10.90;99.90;;;;;;5070576;28;20218;-79
2021/05/02 00:31:40;;;;;;;20.43;18.33;;;10.80;99.90;;;;;;5070663;28;20211;-75
2021/05/02 00:34:06;;;;;;;21.87;18.77;;;10.90;99.90;;;;;;5070434;28;20196;-75
2021/05/02 00:36:33;;;;;;;22.03;18.27;;;10.80;99.90;;;;;;5070671;28;20215;-75
2021/05/02 00:39:00;;;;;;;23.17;18.67;;;10.80;99.90;;;;;;5070655;28;20203;-76
2021/05/02 00:41:29;;;;;;;21.53;19.30;;;10.80;99.90;;;;;;5070504;28;20255;-75
2021/05/02 00:43:57;;;;;;;21.30;17.87;;;10.80;99.90;;;;;;5070058;28;20262;-75
2021/05/02 00:46:29;;;;;;;22.40;18.43;;;10.80;99.90;;;;;;5070386;28;20214;-75
2021/05/02 00:49:02;;;;;;;20.13;17.93;;;10.80;99.90;;;;;;5070028;28;20559;-75
2021/05/02 00:51:37;;;;;;;23.07;18.50;;;10.80;99.90;;;;;;5069964;28;20571;-75
2021/05/02 00:54:16;;;;;;;23.67;19.13;;;10.80;99.90;;;;;;5069395;28;20650;-75
2021/05/02 00:57:01;;;;;;;28.37;19.47;;;10.70;99.90;;;;;;5069908;28;20195;-75
2021/05/02 00:59:38;;;;;;;20.30;17.63;;;10.70;99.90;;;;;;5070244;28;20769;-77
2021/05/02 01:02:05;;;;;;;20.30;18.10;;;10.70;99.90;;;;;;5069864;28;20660;-77
2021/05/02 01:04:33;;;;;;;22.00;18.67;;;10.70;99.90;;;;;;5070052;28;20239;-78
2021/05/02 01:07:02;;;;;;;20.63;17.97;;;10.70;99.90;;;;;;5070010;28;20212;-77
2021/05/02 01:09:31;;;;;;;23.20;17.90;;;10.60;99.90;;;;;;5069722;28;20211;-75
2021/05/02 01:11:58;;;;;;;20.23;17.73;;;10.60;99.90;;;;;;5069579;28;20704;-75
2021/05/02 01:14:26;;;;;;;21.00;18.07;;;10.60;99.90;;;;;;5069603;28;20211;-77
2021/05/02 01:16:56;;;;;;;19.30;17.20;;;10.60;99.90;;;;;;5069552;28;20712;-76
2021/05/02 01:19:22;;;;;;;20.80;18.10;;;10.60;99.90;;;;;;5069535;28;20222;-79
2021/05/02 01:21:50;;;;;;;21.37;17.93;;;10.60;99.90;;;;;;5069927;28;20208;-80
2021/05/02 01:24:18;;;;;;;20.43;17.53;;;10.60;99.90;;;;;;5069595;28;20285;-79
2021/05/02 01:26:47;;;;;;;19.37;17.17;;;10.60;99.90;;;;;;5069619;28;20257;-80
2021/05/02 01:29:14;;;;;;;21.93;18.67;;;10.60;99.90;;;;;;5069427;28;20207;-80
2021/05/02 01:31:42;;;;;;;19.93;17.43;;;10.60;99.90;;;;;;5069541;28;20570;-80
2021/05/02 01:34:08;;;;;;;19.20;17.20;;;10.60;99.90;;;;;;5069271;28;20247;-79
2021/05/02 01:36:35;;;;;;;20.87;17.87;;;10.50;99.90;;;;;;5069519;28;20211;-80
2021/05/02 01:39:04;;;;;;;20.97;17.93;;;10.50;99.90;;;;;;5069635;28;20199;-80
2021/05/02 01:41:32;;;;;;;22.20;19.43;;;10.50;99.90;;;;;;5069678;28;20223;-81
2021/05/02 01:43:58;;;;;;;20.30;18.00;;;10.50;99.90;;;;;;5068909;28;20740;-80
2021/05/02 01:46:28;;;;;;;20.83;18.50;;;10.50;99.90;;;;;;5069396;28;20243;-80
2021/05/02 01:48:55;;;;;;;21.37;19.17;;;10.50;99.90;;;;;;5069241;28;20604;-80
2021/05/02 01:51:22;;;;;;;22.20;18.60;;;10.50;99.90;;;;;;5069123;28;20210;-80
2021/05/02 01:53:49;;;;;;;20.60;18.40;;;10.50;99.90;;;;;;5069198;28;20204;-80
2021/05/02 01:56:16;;;;;;;21.43;18.47;;;10.50;99.90;;;;;;5069122;28;20231;-80
2021/05/02 01:58:44;;;;;;;22.23;19.40;;;10.40;99.90;;;;;;5069211;28;20242;-81
2021/05/02 02:01:14;;;;;;;20.50;18.27;;;10.50;99.90;;;;;;5068998;28;20207;-80
2021/05/02 02:03:43;;;;;;;21.50;18.47;;;10.40;99.90;;;;;;5068923;28;20227;-78
2021/05/02 02:06:09;;;;;;;20.07;17.97;;;10.40;99.90;;;;;;5068532;28;20735;-77
2021/05/02 02:08:37;;;;;;;22.90;19.87;;;10.40;99.90;;;;;;5068960;28;20211;-76
2021/05/02 02:11:03;;;;;;;22.03;18.37;;;10.40;99.90;;;;;;5068502;28;20211;-76
2021/05/02 02:13:29;;;;;;;19.87;17.70;;;10.40;99.90;;;;;;5068555;28;20212;-76
2021/05/02 02:15:57;;;;;;;22.17;19.20;;;10.30;99.90;;;;;;5068574;28;20697;-76
2021/05/02 02:18:23;;;;;;;24.33;18.50;;;10.30;99.90;;;;;;5068260;28;20231;-76
2021/05/02 02:20:52;;;;;;;21.90;19.17;;;10.40;99.90;;;;;;5068789;28;20212;-76
2021/05/02 02:23:21;;;;;;;22.83;18.13;;;10.30;99.90;;;;;;5068350;28;20223;-76
2021/05/02 02:25:49;;;;;;;23.30;19.50;;;10.30;99.90;;;;;;5068591;28;20203;-77
2021/05/02 02:28:16;;;;;;;20.70;18.50;;;10.40;99.90;;;;;;5068258;28;20207;-76
2021/05/02 02:30:44;;;;;;;21.47;19.17;;;10.30;99.90;;;;;;5067900;28;20351;-77
2021/05/02 02:33:11;;;;;;;22.03;18.97;;;10.30;99.90;;;;;;5068632;28;20257;-77
2021/05/02 02:35:41;;;;;;;20.17;17.97;;;10.40;99.90;;;;;;5068487;28;20258;-77
2021/05/02 02:38:09;;;;;;;24.87;19.73;;;10.30;99.90;;;;;;5068310;28;20677;-76
2021/05/02 02:40:37;;;;;;;20.70;18.13;;;10.30;99.90;;;;;;5068512;28;20231;-76
2021/05/02 02:43:04;;;;;;;23.10;19.43;;;10.30;99.90;;;;;;5068081;28;20211;-76
2021/05/02 02:45:34;;;;;;;21.30;18.77;;;10.30;99.90;;;;;;5068051;28;20669;-78
2021/05/02 02:48:04;;;;;;;23.33;19.43;;;10.30;99.90;;;;;;5068574;28;20605;-77
2021/05/02 02:50:32;;;;;;;22.53;19.47;;;10.30;99.90;;;;;;5068521;28;20207;-76
2021/05/02 02:53:03;;;;;;;26.50;19.27;;;10.30;99.90;;;;;;5068509;28;20227;-76
2021/05/02 02:55:31;;;;;;;23.50;19.93;;;10.20;99.90;;;;;;5068514;28;20198;-76
2021/05/02 02:57:59;;;;;;;27.47;20.90;;;10.20;99.90;;;;;;5068459;28;20207;-76
2021/05/02 03:00:27;;;;;;;25.13;20.93;;;10.20;99.90;;;;;;5068310;28;20212;-76
2021/05/02 03:02:56;;;;;;;26.10;21.50;;;10.30;99.90;;;;;;5068310;28;20211;-76
2021/05/02 03:05:24;;;;;;;23.37;20.17;;;10.20;99.90;;;;;;5067918;28;20237;-77
2021/05/02 03:07:52;;;;;;;24.23;19.33;;;10.20;99.90;;;;;;5068572;28;20208;-76
2021/05/02 03:10:19;;;;;;;24.93;21.47;;;10.20;99.90;;;;;;5068028;28;20207;-75
2021/05/02 03:12:49;;;;;;;24.70;20.93;;;10.20;99.90;;;;;;5067994;28;20203;-76
2021/05/02 03:15:15;;;;;;;23.70;19.47;;;10.20;99.90;;;;;;5068040;28;20218;-76
2021/05/02 03:17:44;;;;;;;26.90;20.80;;;10.20;99.90;;;;;;5067653;28;20235;-74
2021/05/02 03:20:13;;;;;;;22.67;19.43;;;10.20;99.90;;;;;;5068092;28;20241;-76
2021/05/02 03:22:42;;;;;;;22.93;19.87;;;10.30;99.90;;;;;;5068118;28;20212;-76
2021/05/02 03:25:13;;;;;;;24.73;19.50;;;10.20;99.90;;;;;;5067451;28;20698;-75
2021/05/02 03:27:44;;;;;;;26.07;21.00;;;10.20;99.90;;;;;;5067525;28;20983;-74
2021/05/02 03:30:13;;;;;;;24.40;19.87;;;10.20;99.90;;;;;;5067786;28;20195;-76
2021/05/02 03:32:47;;;;;;;23.53;19.87;;;10.20;99.90;;;;;;5068008;28;20272;-74
2021/05/02 03:35:14;;;;;;;22.87;19.43;;;10.20;99.90;;;;;;5067498;28;20200;-75
2021/05/02 03:37:43;;;;;;;23.43;20.03;;;10.20;99.90;;;;;;5067695;28;20200;-75
2021/05/02 03:40:11;;;;;;;25.20;20.20;;;10.20;99.90;;;;;;5067376;28;20238;-75
2021/05/02 03:42:37;;;;;;;23.17;20.13;;;10.20;99.90;;;;;;5069908;28;20204;-75
2021/05/02 03:45:04;;;;;;;27.53;21.43;;;10.20;99.90;;;;;;5071120;28;20697;-76
2021/05/02 03:47:30;;;;;;;23.57;19.80;;;10.20;99.90;;;;;;5071096;28;20218;-77
2021/05/02 03:49:57;;;;;;;23.63;20.20;;;10.20;99.90;;;;;;5071552;28;20207;-75
2021/05/02 03:52:23;;;;;;;22.73;19.20;;;10.20;99.90;;;;;;5071361;28;20352;-76
2021/05/02 03:54:52;;;;;;;23.43;19.60;;;10.20;99.90;;;;;;5071361;28;20265;-76
2021/05/02 03:57:19;;;;;;;26.33;20.57;;;10.20;99.90;;;;;;5071168;28;20211;-75
2021/05/02 03:59:45;;;;;;;23.73;20.20;;;10.20;99.90;;;;;;5071450;28;20203;-75
2021/05/02 04:02:13;;;;;;;26.00;20.97;;;10.20;99.90;;;;;;5071247;28;20207;-75
2021/05/02 04:04:41;;;;;;;25.43;20.13;;;10.10;99.90;;;;;;5071266;28;20238;-75
2021/05/02 04:07:09;;;;;;;26.33;20.53;;;10.10;99.90;;;;;;5071178;28;20339;-76
2021/05/02 04:09:36;;;;;;;26.03;21.37;;;10.10;99.90;;;;;;5070963;28;20212;-76
2021/05/02 04:12:03;;;;;;;23.87;20.60;;;10.10;99.90;;;;;;5071303;28;20273;-76
2021/05/02 04:14:30;;;;;;;24.33;19.43;;;10.10;99.90;;;;;;5070897;28;20211;-75
2021/05/02 04:16:57;;;;;;;22.13;19.47;;;10.10;99.90;;;;;;5070770;28;20203;-76
2021/05/02 04:19:24;;;;;;;24.83;19.93;;;10.10;99.90;;;;;;5070896;28;20196;-76
2021/05/02 04:21:51;;;;;;;27.80;20.50;;;10.10;99.90;;;;;;5070642;28;20622;-77
2021/05/02 04:24:17;;;;;;;24.07;20.07;;;10.10;99.90;;;;;;5070723;28;20231;-77
2021/05/02 04:26:47;;;;;;;24.63;20.30;;;10.10;99.90;;;;;;5071000;28;20204;-76
2021/05/02 04:29:14;;;;;;;26.33;20.27;;;10.10;99.90;;;;;;5070759;28;20210;-76
2021/05/02 04:31:41;;;;;;;25.27;20.27;;;10.10;99.90;;;;;;5070918;28;20203;-77
2021/05/02 04:34:07;;;;;;;24.67;19.93;;;10.10;99.90;;;;;;5070720;28;20207;-76
2021/05/02 04:36:34;;;;;;;22.57;19.47;;;10.00;99.90;;;;;;5070774;28;20238;-76
2021/05/02 04:39:01;;;;;;;24.43;20.00;;;10.10;99.90;;;;;;5070391;28;20204;-76
2021/05/02 04:41:27;;;;;;;24.40;20.43;;;10.10;99.90;;;;;;5070273;28;20746;-76
2021/05/02 04:43:54;;;;;;;25.43;20.27;;;10.00;99.90;;;;;;5070354;28;20219;-80
2021/05/02 04:46:20;;;;;;;26.87;20.60;;;10.00;99.90;;;;;;5070606;28;20210;-79
2021/05/02 04:48:47;;;;;;;23.97;20.03;;;10.00;99.90;;;;;;5070513;28;20208;-79
2021/05/02 04:51:14;;;;;;;24.97;20.53;;;10.00;99.90;;;;;;5070385;28;20211;-78
2021/05/02 04:53:42;;;;;;;22.03;19.67;;;10.10;99.90;;;;;;5069564;28;21089;-78
2021/05/02 04:56:08;;;;;;;23.93;18.87;;;10.00;99.90;;;;;;5070295;28;20246;-75
2021/05/02 04:58:34;;;;;;;24.00;20.17;;;10.10;99.90;;;;;;5070092;28;20254;-75
2021/05/02 05:01:00;;;;;;;23.20;19.17;;;10.10;99.90;;;;;;5070037;28;20658;-75
2021/05/02 05:03:27;;;;;;;23.77;20.03;;;10.10;99.90;;;;;;5069717;28;20215;-76
2021/05/02 05:05:54;;;;;;;22.40;19.63;;;10.10;99.90;;;;;;5069791;28;20685;-75
2021/05/02 05:08:20;;;;;;;26.90;20.07;;;10.10;99.90;;;;;;5070123;28;20211;-75
2021/05/02 05:10:47;;;;;;;22.50;19.47;;;10.00;99.90;;;;;;5069613;28;20214;-75
2021/05/02 05:13:13;;;;;;;24.53;20.23;;;10.00;99.90;;;;;;5069358;28;20689;-76
2021/05/02 05:15:39;;;;;;;25.30;19.80;;;10.00;99.90;;;;;;5069907;28;20218;-75
2021/05/02 05:18:05;;;;;;;25.37;19.80;;;10.00;99.90;;;;;;5069547;28;20239;-75
2021/05/02 05:20:31;;;;;;;25.03;18.73;;;10.00;99.90;;;;;;5069595;28;20265;-75
2021/05/02 05:22:58;;;;;;;24.63;19.50;;;10.10;99.90;;;;;;5069639;28;20214;-76
2021/05/02 05:25:24;;;;;;;22.50;19.37;;;10.10;99.90;;;;;;5069461;28;20239;-75
2021/05/02 05:27:51;;;;;;;26.17;20.30;;;10.10;99.90;;;;;;5069470;28;20207;-76
2021/05/02 05:30:17;;;;;;;23.80;19.20;;;9.90;99.90;;;;;;5069344;28;20199;-75
2021/05/02 05:32:43;;;;;;;20.50;17.83;;;9.90;99.90;;;;;;5069562;28;20756;-75
2021/05/02 05:35:10;;;;;;;23.40;18.33;;;9.90;99.90;;;;;;5069457;28;20585;-76
2021/05/02 05:37:37;;;;;;;23.73;17.87;;;9.80;99.90;;;;;;5069399;28;20207;-75
2021/05/02 05:40:06;;;;;;;24.30;18.80;;;9.80;99.90;;;;;;5069318;28;20520;-76
2021/05/02 05:42:32;;;;;;;21.93;18.77;;;9.90;99.90;;;;;;5069144;28;20257;-76
2021/05/02 05:44:58;;;;;;;21.40;17.70;;;9.80;99.90;;;;;;5069120;28;20235;-76
2021/05/02 05:47:25;;;;;;;22.20;17.83;;;9.80;99.90;;;;;;5069165;28;20203;-76
2021/05/02 05:49:52;;;;;;;22.87;18.27;;;9.80;99.90;;;;;;5069080;28;20712;-76
2021/05/02 05:52:18;;;;;;;22.23;18.23;;;9.80;99.90;;;;;;5069106;28;20211;-76
2021/05/02 05:54:44;;;;;;;23.67;18.43;;;9.90;99.90;;;;;;5069164;28;20203;-75
2021/05/02 05:57:11;;;;;;;23.37;18.50;;;9.80;99.90;;;;;;5069253;28;20295;-76
2021/05/02 05:59:37;;;;;;;20.93;18.30;;;9.80;99.90;;;;;;5069123;28;20207;-76
2021/05/02 06:02:03;;;;;;;22.40;18.30;;;9.70;99.90;;;;;;5068877;28;20211;-75
2021/05/02 06:04:29;;;;;;;21.80;17.70;;;9.60;99.90;;;;;;5068620;28;20227;-76
2021/05/02 06:06:56;;;;;;;21.77;18.00;;;9.60;99.90;;;;;;5068879;28;20645;-76
2021/05/02 06:09:22;;;;;;;22.57;17.27;;;9.50;99.90;;;;;;5067965;28;20744;-75
2021/05/02 06:11:48;;;;;;;21.47;18.03;;;9.60;99.90;;;;;;5056150;28;20330;-76
2021/05/02 06:14:15;;;;;;;21.97;18.00;;;9.60;99.90;;;;;;5058194;28;20200;-76
2021/05/02 06:16:41;;;;;;;22.47;17.97;;;9.60;99.90;;;;;;5059183;28;20191;-76
2021/05/02 06:19:08;;;;;;;20.47;16.83;;;9.60;99.90;;;;;;5056329;28;20232;-76
2021/05/02 06:21:34;;;;;;;21.67;17.37;;;9.60;99.90;;;;;;5052678;28;20812;-76
2021/05/02 06:24:02;;;;;;;19.67;17.20;;;9.60;99.90;;;;;;5060816;28;20305;-76
2021/05/02 06:26:29;;;;;;;19.77;17.53;;;9.60;99.90;;;;;;5065855;28;20302;-76
2021/05/02 06:28:55;;;;;;;21.67;16.90;;;9.60;99.90;;;;;;5065785;28;20250;-77
2021/05/02 06:31:22;;;;;;;21.47;17.33;;;9.60;99.90;;;;;;5065618;28;20196;-77
2021/05/02 06:33:49;;;;;;;23.10;18.30;;;9.60;99.90;;;;;;5064513;28;20248;-76
2021/05/02 06:36:15;;;;;;;18.80;16.37;;;9.60;99.90;;;;;;5057001;28;20211;-74
2021/05/02 06:38:41;;;;;;;21.13;17.97;;;9.70;99.90;;;;;;5054071;28;20200;-76
2021/05/02 06:41:07;;;;;;;20.60;16.90;;;9.80;99.90;;;;;;5056543;28;20216;-76
2021/05/02 06:43:34;;;;;;;19.97;16.80;;;9.80;99.90;;;;;;5055363;28;20207;-76
2021/05/02 06:46:00;;;;;;;19.60;16.70;;;9.90;99.90;;;;;;5059111;28;20211;-76
2021/05/02 06:48:27;;;;;;;20.27;16.43;;;9.90;99.90;;;;;;5046684;28;20617;-76
2021/05/02 06:50:53;;;;;;;19.10;15.40;;;10.00;99.90;;;;;;5047207;28;20212;-77
2021/05/02 06:53:20;;;;;;;16.57;14.77;;;9.90;99.90;;;;;;5055521;28;20254;-76
2021/05/02 06:55:46;;;;;;;18.83;15.90;;;10.00;99.90;;;;;;5050370;28;20204;-77
2021/05/02 06:58:12;;;;;;;18.93;16.93;;;10.00;99.90;;;;;;5056992;28;20237;-76
2021/05/02 07:00:39;;;;;;;17.87;15.60;;;10.10;99.90;;;;;;5066357;28;20207;-76
2021/05/02 07:03:05;;;;;;;16.67;14.87;;;10.10;99.90;;;;;;5066545;28;20208;-74
2021/05/02 07:05:33;;;;;;;17.90;15.67;;;10.10;99.90;;;;;;5054581;28;20275;-74
2021/05/02 07:07:59;;;;;;;19.37;16.60;;;10.10;99.90;;;;;;5048554;28;20212;-76
2021/05/02 07:10:25;;;;;;;18.30;15.73;;;10.20;99.90;;;;;;5045351;28;20215;-77
2021/05/02 07:12:52;;;;;;;17.23;15.33;;;10.20;99.90;;;;;;5049055;28;20231;-76
2021/05/02 07:15:18;;;;;;;17.63;15.83;;;10.30;99.90;;;;;;5052594;28;20211;-76
2021/05/02 07:17:44;;;;;;;17.50;15.60;;;10.40;99.90;;;;;;5048534;28;20232;-76
2021/05/02 07:20:13;;;;;;;17.60;15.80;;;10.30;99.90;;;;;;5049090;28;20211;-76
2021/05/02 07:22:43;;;;;;;18.00;16.03;;;10.30;99.90;;;;;;5049407;28;20235;-76
2021/05/02 07:25:09;;;;;;;19.47;17.37;;;10.20;99.90;;;;;;5049915;28;20323;-76
2021/05/02 07:27:36;;;;;;;19.40;16.73;;;10.20;99.90;;;;;;5049636;28;20246;-76
2021/05/02 07:30:02;;;;;;;19.30;16.27;;;10.20;99.90;;;;;;5049629;28;20208;-76
2021/05/02 07:32:29;;;;;;;18.37;16.20;;;10.20;99.90;;;;;;5049587;28;20204;-76
2021/05/02 07:34:55;;;;;;;20.13;16.80;;;10.20;99.90;;;;;;5049417;28;20208;-76
2021/05/02 07:37:21;;;;;;;19.60;16.93;;;10.20;99.90;;;;;;5049442;28;20204;-76
2021/05/02 07:39:48;;;;;;;19.07;16.60;;;10.30;99.90;;;;;;5049180;28;20270;-76
2021/05/02 07:42:14;;;;;;;19.70;17.17;;;10.30;99.90;;;;;;5049416;28;20265;-76
2021/05/02 07:44:40;;;;;;;19.70;17.50;;;10.30;99.90;;;;;;5049599;28;20231;-76
2021/05/02 07:47:06;;;;;;;18.13;16.23;;;10.20;99.90;;;;;;5049776;28;20617;-76
2021/05/02 07:49:32;;;;;;;18.80;16.27;;;10.30;99.90;;;;;;5049654;28;20208;-77
2021/05/02 07:51:59;;;;;;;19.00;16.47;;;10.30;99.90;;;;;;5049334;28;20212;-76
2021/05/02 07:54:25;;;;;;;17.73;15.33;;;10.40;99.90;;;;;;5049111;28;20663;-76
2021/05/02 07:56:52;;;;;;;18.33;15.97;;;10.50;99.90;;;;;;5049489;28;20212;-76
2021/05/02 07:59:18;;;;;;;17.57;15.70;;;10.50;99.90;;;;;;5049017;28;20212;-76
2021/05/02 08:01:44;;;;;;;18.90;16.90;;;10.50;99.90;;;;;;5049080;28;20215;-80
2021/05/02 08:04:10;;;;;;;20.10;16.00;;;10.50;99.90;;;;;;5048642;28;20759;-79
2021/05/02 08:06:36;;;;;;;18.37;16.43;;;10.60;99.90;;;;;;5049238;28;20246;-77
2021/05/02 08:09:03;;;;;;;18.73;16.43;;;10.50;99.90;;;;;;5061029;28;20207;-77
2021/05/02 08:11:30;;;;;;;17.63;15.80;;;10.40;99.90;;;;;;5062753;28;20203;-75
2021/05/02 08:13:57;;;;;;;19.40;15.83;;;10.50;99.90;;;;;;5050477;28;20208;-77
2021/05/02 08:16:24;;;;;;;18.90;15.73;;;10.60;99.90;;;;;;5050840;28;20211;-78
2021/05/02 08:18:50;;;;;;;16.83;15.13;;;10.60;99.90;;;;;;5050259;28;20729;-78
2021/05/02 08:21:17;;;;;;;15.37;13.87;;;10.70;99.90;;;;;;5057192;28;20201;-78
2021/05/02 08:23:43;;;;;;;15.40;13.80;;;10.90;99.90;;;;;;5058964;28;20636;-76
2021/05/02 08:26:10;;;;;;;15.87;13.50;;;11.00;99.90;;;;;;5063272;28;20666;-76
2021/05/02 08:28:36;;;;;;;15.70;14.13;;;11.20;99.90;;;;;;5048838;28;20204;-76
2021/05/02 08:31:03;;;;;;;14.90;13.37;;;11.30;99.90;;;;;;5050402;28;20254;-76
2021/05/02 08:33:29;;;;;;;14.80;13.30;;;11.40;99.90;;;;;;5050496;28;20196;-76
2021/05/02 08:35:55;;;;;;;14.97;13.47;;;11.40;99.90;;;;;;5050492;28;20242;-76
2021/05/02 08:38:21;;;;;;;15.00;13.50;;;11.40;99.90;;;;;;5050512;28;20204;-76
2021/05/02 08:40:47;;;;;;;16.27;13.20;;;11.30;99.90;;;;;;5050335;28;20224;-77
2021/05/02 08:43:15;;;;;;;14.50;13.03;;;11.30;99.90;;;;;;5050398;28;20208;-76
2021/05/02 08:45:41;;;;;;;14.13;12.73;;;11.40;99.90;;;;;;5050503;28;20289;-76
2021/05/02 08:48:08;;;;;;;18.03;13.97;;;11.40;99.90;;;;;;5050019;28;20247;-77
2021/05/02 08:50:34;;;;;;;15.03;13.53;;;11.40;99.90;;;;;;5049741;28;20207;-74
2021/05/02 08:53:07;;;;;;;13.47;12.03;;;11.40;99.90;;;;;;5049629;28;20197;-72
2021/05/02 08:55:33;;;;;;;16.10;14.40;;;11.40;99.90;;;;;;5049910;28;20196;-77
2021/05/02 08:57:59;;;;;;;15.03;13.53;;;11.30;99.90;;;;;;5053066;28;20200;-77
2021/05/02 09:00:25;;;;;;;14.40;12.90;;;11.20;99.90;;;;;;5071930;28;20214;-76
2021/05/02 09:02:53;;;;;;;14.67;13.03;;;11.10;99.90;;;;;;5079145;28;20253;-76
2021/05/02 09:05:42;;;;;;;14.33;12.73;;;11.20;99.90;;;;;;5074831;28;20277;-77
2021/05/02 09:08:08;;;;;;;14.87;13.27;;;11.30;99.90;;;;;;5068871;28;20214;-77
2021/05/02 09:10:35;;;;;;;15.00;13.50;;;11.20;99.90;;;;;;5071411;28;20207;-77
2021/05/02 09:13:04;;;;;;;14.10;12.23;;;11.20;99.90;;;;;;5071183;28;20727;-78
2021/05/02 09:15:31;;;;;;;13.20;11.80;;;11.20;99.90;;;;;;5070381;28;21084;-78
2021/05/02 09:18:00;;;;;;;16.50;12.73;;;11.20;99.90;;;;;;5071737;28;20285;-77
2021/05/02 09:20:48;;;;;;;14.93;13.43;;;11.30;99.90;;;;;;5073902;28;20287;-78
2021/05/02 09:23:15;;;;;;;23.97;13.80;;;11.30;99.90;;;;;;5079583;28;20278;-77
2021/05/02 09:25:50;;;;;;;14.90;13.40;;;11.30;99.90;;;;;;5081486;28;20226;-75
2021/05/02 09:28:17;;;;;;;16.07;14.37;;;11.30;99.90;;;;;;5071213;28;20195;-76
2021/05/02 09:30:43;;;;;;;16.43;14.63;;;11.30;99.90;;;;;;5071763;28;20605;-75
2021/05/02 09:33:24;;;;;;;20.47;15.63;;;11.30;99.90;;;;;;5063058;28;20204;-75
2021/05/02 09:35:52;;;;;;;17.73;15.77;;;11.30;99.90;;;;;;5074366;28;20253;-75
2021/05/02 09:38:19;;;;;;;17.07;15.00;;;11.30;99.90;;;;;;5066932;28;20701;-76
2021/05/02 09:40:53;;;;;;;20.70;15.87;;;11.30;99.90;;;;;;5082300;28;20226;-76
2021/05/02 09:43:39;;;;;;;17.37;14.97;;;11.40;99.90;;;;;;5065579;28;20206;-71
2021/05/02 09:46:23;;;;;;;16.33;14.67;;;11.40;99.90;;;;;;5075368;28;20231;-73
2021/05/02 09:48:51;;;;;;;17.90;16.10;;;11.40;99.90;;;;;;5074510;28;20560;-76
2021/05/02 09:51:20;;;;;;;16.20;14.60;;;11.50;99.90;;;;;;5076205;28;20686;-77
2021/05/02 09:54:05;;;;;;;17.33;15.53;;;11.50;99.90;;;;;;5076644;28;20214;-76
2021/05/02 09:56:32;;;;;;;18.33;14.80;;;11.50;99.90;;;;;;5077448;28;20202;-76
2021/05/02 09:58:59;;;;;;;17.53;15.73;;;11.50;99.90;;;;;;5076756;28;20195;-76
2021/05/02 10:01:25;;;;;;;17.87;15.43;;;11.50;99.90;;;;;;5082358;28;20653;-76
2021/05/02 10:03:52;;;;;;;18.63;15.80;;;11.60;99.90;;;;;;5076639;28;20223;-77
2021/05/02 10:06:30;;;;;;;18.13;16.23;;;11.60;99.90;;;;;;5072720;28;20723;-77
2021/05/02 10:08:57;;;;;;;18.93;15.23;;;11.60;99.90;;;;;;5075903;28;20191;-76
2021/05/02 10:11:25;;;;;;;18.17;16.30;;;11.60;99.90;;;;;;5070584;28;20296;-76
2021/05/02 10:13:51;;;;;;;22.20;15.43;;;11.60;99.90;;;;;;5079691;28;20199;-77
2021/05/02 10:16:17;;;;;;;18.83;15.70;;;11.70;99.90;;;;;;5081266;28;20758;-77
2021/05/02 10:18:44;;;;;;;17.80;15.80;;;11.70;99.90;;;;;;5078175;28;20266;-77
2021/05/02 10:21:10;;;;;;;20.77;16.27;;;11.70;99.90;;;;;;5075847;28;20198;-77
2021/05/02 10:23:37;;;;;;;18.03;15.57;;;11.70;99.90;;;;;;5078759;28;20203;-77
2021/05/02 10:26:05;;;;;;;17.37;15.53;;;11.70;99.90;;;;;;5077583;28;20731;-77
2021/05/02 10:28:33;;;;;;;16.80;14.93;;;11.70;99.90;;;;;;5075467;28;20230;-76
2021/05/02 10:31:00;;;;;;;16.40;14.77;;;11.60;99.90;;;;;;5076631;28;20685;-76
2021/05/02 10:33:32;;;;;;;15.97;14.33;;;11.60;99.90;;;;;;5077029;28;20696;-76
2021/05/02 10:36:01;;;;;;;16.43;14.73;;;11.50;99.90;;;;;;5073705;28;20204;-74
2021/05/02 10:38:52;;;;;;;22.87;15.17;;;11.50;99.90;;;;;;5075987;28;20218;-74
2021/05/02 10:41:28;;;;;;;17.13;15.10;;;11.50;99.90;;;;;;5075263;28;20313;-77
2021/05/02 10:43:55;;;;;;;17.37;15.57;;;11.50;99.90;;;;;;5073037;28;20188;-76
2021/05/02 10:46:45;;;;;;;18.87;16.13;;;11.50;99.90;;;;;;5069569;28;20643;-76
2021/05/02 10:49:32;;;;;;;19.00;15.30;;;11.40;99.90;;;;;;5079933;28;20199;-76
2021/05/02 10:52:29;;;;;;;17.23;15.17;;;11.40;99.90;;;;;;5077403;28;20199;-76
2021/05/02 10:55:12;;;;;;;16.27;14.57;;;11.40;99.90;;;;;;5078816;28;20201;-76
2021/05/02 10:57:40;;;;;;;24.03;14.77;;;11.50;99.90;;;;;;5073437;28;20184;-77
2021/05/02 11:00:08;;;;;;;19.63;15.20;;;11.50;99.90;;;;;;5080023;28;20210;-76
2021/05/02 11:02:38;;;;;;;18.87;15.70;;;11.60;99.90;;;;;;5080787;28;20199;-76
2021/05/02 11:05:06;;;;;;;20.73;15.00;;;11.60;99.90;;;;;;5083204;28;20223;-76
2021/05/02 11:07:37;;;;;;;18.03;15.33;;;11.70;99.90;;;;;;5077254;28;20203;-76
2021/05/02 11:10:07;;;;;;;18.77;15.90;;;11.70;99.90;;;;;;5072768;28;20208;-76
2021/05/02 11:12:33;;;;;;;17.53;15.57;;;11.80;99.90;;;;;;5077774;28;20207;-76
2021/05/02 11:15:00;;;;;;;18.30;15.53;;;11.80;99.90;;;;;;5081295;28;20199;-76
2021/05/02 11:17:31;;;;;;;17.13;15.37;;;11.90;99.90;;;;;;5081017;28;20250;-76
2021/05/02 11:20:00;;;;;;;17.77;15.97;;;11.90;99.90;;;;;;5073030;28;20221;-76
2021/05/02 11:22:28;;;;;;;17.77;16.00;;;11.90;99.90;;;;;;5076801;28;20203;-76
2021/05/02 11:24:59;;;;;;;17.70;15.93;;;11.80;99.90;;;;;;5077753;28;20231;-76
2021/05/02 11:27:43;;;;;;;16.00;14.47;;;12.00;99.90;;;;;;5063339;28;20224;-76
2021/05/02 11:30:19;;;;;;;16.93;15.17;;;12.00;99.90;;;;;;5064200;28;20204;-76
2021/05/02 11:32:48;;;;;;;17.10;15.40;;;12.00;99.90;;;;;;5061819;28;20217;-76
2021/05/02 11:35:16;;;;;;;19.97;16.20;;;12.10;99.90;;;;;;5071912;28;20253;-77
2021/05/02 11:37:51;;;;;;;18.33;15.50;;;12.10;99.90;;;;;;5074759;28;20253;-76
2021/05/02 11:40:37;;;;;;;20.73;15.67;;;12.10;99.90;;;;;;5078136;28;20241;-76
2021/05/02 11:43:06;;;;;;;17.97;16.07;;;12.00;99.90;;;;;;5075439;28;20202;-76
2021/05/02 11:45:41;;;;;;;15.70;14.07;;;12.00;99.90;;;;;;5075115;28;20710;-76
2021/05/02 11:48:08;;;;;;;15.60;14.00;;;12.00;99.90;;;;;;5072065;28;20198;-76
2021/05/02 11:50:39;;;;;;;16.67;14.97;;;12.00;99.90;;;;;;5074377;28;20204;-76
2021/05/02 11:53:05;;;;;;;16.60;14.90;;;12.00;99.90;;;;;;5073388;28;20283;-76
2021/05/02 11:55:33;;;;;;;16.10;13.90;;;12.00;99.90;;;;;;5076554;28;20211;-76
2021/05/02 11:58:04;;;;;;;15.63;14.03;;;11.90;99.90;;;;;;5077656;28;20230;-76
2021/05/02 12:00:37;;;;;;;14.97;13.27;;;11.90;99.90;;;;;;5077660;28;20187;-76
2021/05/02 12:03:07;;;;;;;14.30;12.83;;;11.80;99.90;;;;;;5073243;28;20206;-76
2021/05/02 12:05:34;;;;;;;14.33;12.90;;;11.80;99.90;;;;;;5077841;28;20238;-76
2021/05/02 12:08:07;;;;;;;15.37;13.77;;;11.80;99.90;;;;;;5080077;28;20562;-76
2021/05/02 12:10:34;;;;;;;18.13;15.20;;;11.80;99.90;;;;;;5080217;28;20207;-77
2021/05/02 12:13:00;;;;;;;16.33;14.73;;;11.70;99.90;;;;;;5078677;28;20231;-76
2021/05/02 12:15:27;;;;;;;17.33;14.63;;;11.70;99.90;;;;;;5060146;28;20239;-72
2021/05/02 12:17:54;;;;;;;16.63;14.93;;;11.70;99.90;;;;;;5068263;28;20239;-74
2021/05/02 12:20:23;;;;;;;16.57;14.90;;;11.70;99.90;;;;;;5068285;28;20214;-76
2021/05/02 12:22:49;;;;;;;17.10;14.87;;;11.80;99.90;;;;;;5059320;28;20258;-75
2021/05/02 12:25:16;;;;;;;16.90;15.03;;;11.80;99.90;;;;;;5048402;28;20255;-76
2021/05/02 12:27:55;;;;;;;16.57;14.87;;;11.80;99.90;;;;;;5048668;28;20219;-76
2021/05/02 12:30:21;;;;;;;17.67;15.37;;;11.80;99.90;;;;;;5048351;28;20635;-76
2021/05/02 12:32:49;;;;;;;17.17;15.37;;;11.70;99.90;;;;;;5053753;28;20636;-76
2021/05/02 12:35:15;;;;;;;17.67;15.23;;;11.60;99.90;;;;;;5059112;28;20200;-76